Puerto Banus, Marbella

>

This is an optional block (switch it off / on) in the settings - file ($SITE['banners'] = false;)

You can display ads, any other important text or photo’s using text / html or PHP code.

You can place one or more at the top and or bottom and it can all be different for content / size .



Meteosat more information blitzortung!


Radar lluvias  rain snow radar


Visita nuestra red de sitios de meteo:

Documentation for the template used

MeteoibericaRed estaciones Meteorologicas

MeteoclimaticRed estaciones Meteorologicas



Sin Advertencias climatologicas .En este momento tenemos Nivel Verde.    No hay Alarmas

Pagina Historial Weather Underground texto

Diario Resumen Diciembre 26, 2017 Unidades:  Métrico    impérial   Tanto
« Anterior Dia
Siguiente Dia »
Diario Semana Mensual Anual Personalizada
  Maxima: Minima: Media:
Temperatura: 17.5 °C 11.2 °C 14.6 °C
Punto de rocío: 14.2 °C 5.9 °C 9.8 °C
Humedad: 93 % 51 % 75 %
Velocidad del Viento: 40.7 km/h 0.0 km/h 14.9 km/h
Ráfagas de viento: 40.7 km/h - -
Viento:- - West
Pression baro: 1025.3 hPa 1020.2 hPa -
Précipitaciones: 1.5 mm    
Historical Graphs
 
 
Datos de tabla para Diciembre 26, 2017
Tiempo Temperatura Punto de rocío Pression baro Viento Velocidad del Viento Ráfagas de viento Humedad Las precipitaciones Rate ( Hora )
00:00 11.7 °C 10.2 °C 1025.3 hPa North 6.4 km/h 6.4 km/h 91 % 0.0 mm
00:05 11.6 °C 10.2 °C 1025.3 hPa North 6.4 km/h 6.4 km/h 91 % 0.0 mm
00:06 11.6 °C 10.2 °C 1025.3 hPa North 5.6 km/h 5.6 km/h 91 % 0.0 mm
00:07 11.6 °C 10.2 °C 1025.3 hPa North 5.6 km/h 5.6 km/h 91 % 0.0 mm
00:12 11.6 °C 10.3 °C 1025.3 hPa North 5.6 km/h 5.6 km/h 92 % 0.0 mm
00:13 11.6 °C 10.3 °C 1025.3 hPa North 5.6 km/h 5.6 km/h 92 % 0.0 mm
00:15 11.6 °C 10.3 °C 1025.3 hPa North 3.2 km/h 6.4 km/h 92 % 0.0 mm
00:18 11.7 °C 10.4 °C 1025.3 hPa North 5.6 km/h 5.6 km/h 92 % 0.0 mm
00:23 11.7 °C 10.4 °C 1025.3 hPa Calm     92 % 0.0 mm
00:24 11.7 °C 10.4 °C 1025.3 hPa North 4.8 km/h 4.8 km/h 92 % 0.0 mm
00:29 11.5 °C 10.1 °C 1025.3 hPa North 7.4 km/h 7.4 km/h 91 % 0.0 mm
00:34 11.4 °C 10.2 °C 1025.3 hPa North 7.4 km/h 7.4 km/h 92 % 0.0 mm
00:36 11.4 °C 10.1 °C 1024.9 hPa North 5.6 km/h 5.6 km/h 92 % 0.0 mm
00:37 11.4 °C 10.1 °C 1025.3 hPa North 5.6 km/h 5.6 km/h 92 % 0.0 mm
00:41 11.3 °C 10.1 °C 1025.3 hPa North 5.6 km/h 5.6 km/h 92 % 0.0 mm
00:45 11.3 °C 10.1 °C 1025.3 hPa North 5.6 km/h 5.6 km/h 92 % 0.0 mm
00:46 11.3 °C 10.1 °C 1024.9 hPa North 5.6 km/h 5.6 km/h 92 % 0.0 mm
00:49 11.3 °C 10.1 °C 1024.9 hPa North 6.4 km/h 6.4 km/h 92 % 0.0 mm
00:54 11.3 °C 10.0 °C 1024.9 hPa North 6.4 km/h 6.4 km/h 92 % 0.0 mm
00:59 11.2 °C 9.9 °C 1024.9 hPa North 9.3 km/h 9.3 km/h 92 % 0.0 mm
01:00 11.2 °C 9.9 °C 1024.9 hPa North 9.3 km/h 9.3 km/h 92 % 0.0 mm
01:01 11.2 °C 9.9 °C 1024.9 hPa North 9.3 km/h 9.3 km/h 92 % 0.0 mm
01:05 11.2 °C 9.9 °C 1024.9 hPa North 11.1 km/h 11.1 km/h 92 % 0.0 mm
01:10 11.2 °C 9.9 °C 1024.9 hPa North 4.8 km/h 11.3 km/h 92 % 0.0 mm
01:15 11.2 °C 9.9 °C 1024.9 hPa North 9.3 km/h 9.3 km/h 92 % 0.0 mm
01:20 11.3 °C 10.0 °C 1024.9 hPa North 7.4 km/h 7.4 km/h 92 % 0.0 mm
01:22 11.3 °C 10.2 °C 1024.9 hPa North 9.3 km/h 9.3 km/h 93 % 0.0 mm
01:27 11.3 °C 10.1 °C 1024.9 hPa North 6.4 km/h 6.4 km/h 92 % 0.0 mm
01:32 11.3 °C 10.0 °C 1024.6 hPa North 7.4 km/h 7.4 km/h 92 % 0.0 mm
01:34 11.3 °C 10.0 °C 1024.6 hPa North 7.4 km/h 7.4 km/h 92 % 0.0 mm
01:39 11.3 °C 10.0 °C 1024.6 hPa North 9.3 km/h 9.3 km/h 92 % 0.0 mm
01:41 11.3 °C 10.0 °C 1024.6 hPa North 9.3 km/h 9.3 km/h 92 % 0.0 mm
01:45 11.3 °C 10.0 °C 1024.6 hPa North 9.3 km/h 9.3 km/h 92 % 0.3 mm
01:46 11.3 °C 10.0 °C 1024.6 hPa NNW 11.3 km/h 11.3 km/h 92 % 0.3 mm
01:51 11.3 °C 10.1 °C 1024.6 hPa North 7.4 km/h 7.4 km/h 92 % 0.3 mm
01:53 11.3 °C 10.1 °C 1024.6 hPa North 9.7 km/h 9.7 km/h 92 % 0.3 mm
01:56 11.3 °C 10.2 °C 1024.6 hPa North 9.3 km/h 9.3 km/h 93 % 0.3 mm
02:00 11.3 °C 10.2 °C 1024.6 hPa North 9.7 km/h 9.7 km/h 93 % 0.3 mm
02:01 11.3 °C 10.2 °C 1024.6 hPa North 9.3 km/h 9.3 km/h 93 % 0.3 mm
02:05 11.4 °C 10.3 °C 1024.6 hPa North 5.6 km/h 5.6 km/h 93 % 0.3 mm
02:07 11.4 °C 10.3 °C 1024.6 hPa North 5.6 km/h 5.6 km/h 93 % 0.3 mm
02:12 11.5 °C 10.4 °C 1024.6 hPa NNW 5.6 km/h 5.6 km/h 93 % 0.3 mm
02:14 11.6 °C 10.4 °C 1024.6 hPa NNW 6.4 km/h 6.4 km/h 93 % 0.3 mm
02:16 11.6 °C 10.5 °C 1024.6 hPa NNW 9.3 km/h 9.3 km/h 93 % 0.3 mm
02:21 11.7 °C 10.6 °C 1024.3 hPa NNW 5.6 km/h 5.6 km/h 93 % 0.3 mm
02:26 11.7 °C 10.6 °C 1024.3 hPa NNW 5.6 km/h 5.6 km/h 93 % 0.3 mm
02:28 11.7 °C 10.6 °C 1024.3 hPa NNW 5.6 km/h 5.6 km/h 93 % 0.3 mm
02:31 11.7 °C 10.6 °C 1024.3 hPa NNW 5.6 km/h 5.6 km/h 93 % 0.3 mm
02:34 11.7 °C 10.6 °C 1024.3 hPa NNW 5.6 km/h 5.6 km/h 93 % 0.3 mm
02:35 11.7 °C 10.6 °C 1024.3 hPa NNW 5.6 km/h 5.6 km/h 93 % 0.3 mm
02:39 11.8 °C 10.7 °C 1024.3 hPa NNW 6.4 km/h 6.4 km/h 93 % 0.3 mm
02:42 11.8 °C 10.7 °C 1024.3 hPa NNW 7.4 km/h 7.4 km/h 93 % 0.3 mm
02:45 11.7 °C 10.4 °C 1024.3 hPa North 9.3 km/h 9.3 km/h 92 % 0.0 mm
02:50 11.5 °C 10.2 °C 1024.3 hPa North 5.6 km/h 5.6 km/h 92 % 0.0 mm
02:51 11.5 °C 10.2 °C 1024.3 hPa North 5.6 km/h 5.6 km/h 92 % 0.0 mm
02:55 11.5 °C 10.4 °C 1024.3 hPa North 5.6 km/h 6.4 km/h 93 % 0.0 mm
02:58 11.4 °C 10.3 °C 1024.3 hPa NNE 7.4 km/h 7.4 km/h 93 % 0.0 mm
03:01 11.4 °C 10.3 °C 1024.3 hPa NNE 5.6 km/h 5.6 km/h 93 % 0.0 mm
03:06 11.3 °C 10.2 °C 1024.3 hPa NNE 5.6 km/h 5.6 km/h 93 % 0.0 mm
03:07 11.4 °C 10.3 °C 1024.3 hPa NNE 5.6 km/h 5.6 km/h 93 % 0.0 mm
03:11 11.4 °C 10.3 °C 1024.3 hPa North 5.6 km/h 5.6 km/h 93 % 0.0 mm
03:13 11.4 °C 10.3 °C 1024.3 hPa North 6.4 km/h 6.4 km/h 93 % 0.0 mm
03:18 11.4 °C 10.3 °C 1024.3 hPa North 5.6 km/h 5.6 km/h 93 % 0.0 mm
03:22 11.5 °C 10.4 °C 1024.3 hPa North 11.1 km/h 11.1 km/h 93 % 0.0 mm
03:24 11.4 °C 10.3 °C 1024.3 hPa North 9.7 km/h 9.7 km/h 93 % 0.0 mm
03:27 11.4 °C 10.3 °C 1024.3 hPa North 9.3 km/h 9.3 km/h 93 % 0.0 mm
03:32 11.4 °C 10.3 °C 1024.3 hPa North 7.4 km/h 7.4 km/h 93 % 0.0 mm
03:34 11.4 °C 10.3 °C 1024.3 hPa NNW 5.6 km/h 5.6 km/h 93 % 0.0 mm
03:37 11.3 °C 10.2 °C 1024.3 hPa NNW 8.0 km/h 8.0 km/h 93 % 0.0 mm
03:42 11.3 °C 10.2 °C 1024.3 hPa North 9.3 km/h 9.3 km/h 93 % 0.0 mm
03:44 11.3 °C 10.2 °C 1023.9 hPa NNE 9.3 km/h 9.3 km/h 93 % 0.0 mm
03:49 11.3 °C 10.2 °C 1023.9 hPa North 9.3 km/h 9.3 km/h 93 % 0.0 mm
03:51 11.3 °C 10.2 °C 1023.9 hPa North 9.7 km/h 9.7 km/h 93 % 0.0 mm
03:56 11.4 °C 10.3 °C 1023.9 hPa NNW 7.4 km/h 7.4 km/h 93 % 0.0 mm
03:58 11.4 °C 10.3 °C 1023.9 hPa NNW 7.4 km/h 7.4 km/h 93 % 0.0 mm
04:02 11.6 °C 10.4 °C 1023.9 hPa NNW 8.0 km/h 8.0 km/h 93 % 0.0 mm
04:03 11.6 °C 10.5 °C 1023.9 hPa NNW 9.3 km/h 9.3 km/h 93 % 0.0 mm
04:04 11.7 °C 10.6 °C 1023.9 hPa NW 9.3 km/h 9.3 km/h 93 % 0.0 mm
04:08 11.8 °C 10.7 °C 1023.9 hPa NW 7.4 km/h 7.4 km/h 93 % 0.0 mm
04:14 11.9 °C 10.8 °C 1023.9 hPa NW 11.3 km/h 11.3 km/h 93 % 0.0 mm
04:18 12.1 °C 10.9 °C 1023.6 hPa WNW 11.3 km/h 11.3 km/h 93 % 0.0 mm
04:23 12.4 °C 11.3 °C 1023.6 hPa West 16.7 km/h 16.7 km/h 93 % 0.0 mm
04:24 12.4 °C 11.3 °C 1023.6 hPa West 16.7 km/h 16.7 km/h 93 % 0.0 mm
04:29 12.8 °C 11.7 °C 1023.6 hPa West 13.0 km/h 13.0 km/h 93 % 0.0 mm
04:30 12.8 °C 11.7 °C 1023.6 hPa West 9.7 km/h 19.3 km/h 93 % 0.0 mm
04:35 12.9 °C 11.8 °C 1023.6 hPa West 11.3 km/h 11.3 km/h 93 % 0.0 mm
04:39 13.0 °C 11.9 °C 1023.6 hPa West 11.1 km/h 11.1 km/h 93 % 0.0 mm
04:41 13.0 °C 11.9 °C 1023.6 hPa West 9.7 km/h 9.7 km/h 93 % 0.0 mm
04:45 13.1 °C 11.8 °C 1023.6 hPa West 13.0 km/h 13.0 km/h 92 % 0.0 mm
04:47 13.1 °C 11.8 °C 1023.6 hPa WNW 13.0 km/h 13.0 km/h 92 % 0.0 mm
04:51 13.1 °C 11.8 °C 1023.6 hPa West 14.8 km/h 14.8 km/h 92 % 0.0 mm
04:53 13.1 °C 11.8 °C 1023.6 hPa WNW 11.1 km/h 11.1 km/h 92 % 0.0 mm
04:56 13.1 °C 11.7 °C 1023.6 hPa WNW 7.4 km/h 7.4 km/h 91 % 0.0 mm
04:58 13.1 °C 11.7 °C 1023.6 hPa WNW 8.0 km/h 8.0 km/h 91 % 0.0 mm
05:03 13.2 °C 11.7 °C 1023.6 hPa WNW 7.4 km/h 7.4 km/h 91 % 0.0 mm
05:04 13.2 °C 11.7 °C 1023.6 hPa WNW 7.4 km/h 7.4 km/h 91 % 0.0 mm
05:05 13.2 °C 11.7 °C 1023.6 hPa WNW 7.4 km/h 7.4 km/h 91 % 0.0 mm
05:09 13.2 °C 11.6 °C 1023.6 hPa WNW 5.6 km/h 5.6 km/h 90 % 0.0 mm
05:11 13.2 °C 11.6 °C 1023.6 hPa WNW 5.6 km/h 5.6 km/h 90 % 0.0 mm
05:15 13.2 °C 11.6 °C 1023.6 hPa WNW 6.4 km/h 6.4 km/h 90 % 0.0 mm
05:17 13.2 °C 11.6 °C 1023.6 hPa WNW 8.0 km/h 8.0 km/h 90 % 0.0 mm
05:21 13.2 °C 11.4 °C 1023.6 hPa WNW 5.6 km/h 5.6 km/h 89 % 0.0 mm
05:26 13.3 °C 11.5 °C 1023.2 hPa WNW 7.4 km/h 7.4 km/h 89 % 0.0 mm
05:28 13.3 °C 11.3 °C 1023.2 hPa WNW 5.6 km/h 5.6 km/h 88 % 0.0 mm
05:32 13.3 °C 11.3 °C 1023.2 hPa WNW 7.4 km/h 7.4 km/h 88 % 0.0 mm
05:36 13.3 °C 11.2 °C 1023.2 hPa WNW 5.6 km/h 5.6 km/h 87 % 0.0 mm
05:37 13.3 °C 11.2 °C 1023.2 hPa WNW 5.6 km/h 5.6 km/h 87 % 0.0 mm
05:42 13.4 °C 11.3 °C 1023.2 hPa WNW 6.4 km/h 6.4 km/h 87 % 0.0 mm
05:43 13.5 °C 11.4 °C 1023.2 hPa WNW 9.3 km/h 9.3 km/h 87 % 0.0 mm
05:48 13.6 °C 11.5 °C 1023.2 hPa West 13.0 km/h 13.0 km/h 87 % 0.0 mm
05:49 13.7 °C 11.6 °C 1023.2 hPa West 16.7 km/h 16.7 km/h 87 % 0.0 mm
05:54 14.1 °C 11.9 °C 1023.2 hPa West 18.5 km/h 18.5 km/h 87 % 0.0 mm
05:59 14.3 °C 12.0 °C 1023.2 hPa WSW 18.5 km/h 18.5 km/h 86 % 0.0 mm
06:00 14.3 °C 12.0 °C 1023.2 hPa West 18.5 km/h 18.5 km/h 86 % 0.0 mm
06:01 14.4 °C 12.1 °C 1023.2 hPa West 20.4 km/h 20.4 km/h 86 % 0.0 mm
06:05 14.4 °C 12.1 °C 1023.2 hPa WNW 22.2 km/h 22.2 km/h 86 % 0.0 mm
06:07 14.5 °C 12.0 °C 1023.2 hPa West 27.8 km/h 27.8 km/h 85 % 0.0 mm
06:12 14.6 °C 11.9 °C 1023.2 hPa WSW 22.2 km/h 22.2 km/h 84 % 0.0 mm
06:14 14.6 °C 11.7 °C 1023.2 hPa WSW 22.2 km/h 22.2 km/h 83 % 0.0 mm
06:18 14.6 °C 11.6 °C 1022.9 hPa West 25.9 km/h 25.9 km/h 82 % 0.0 mm
06:23 14.7 °C 11.4 °C 1023.2 hPa West 14.8 km/h 14.8 km/h 81 % 0.0 mm
06:28 14.7 °C 11.4 °C 1023.2 hPa West 18.5 km/h 18.5 km/h 81 % 0.0 mm
06:29 14.7 °C 11.4 °C 1023.2 hPa WNW 18.5 km/h 18.5 km/h 81 % 0.0 mm
06:34 14.6 °C 11.3 °C 1023.2 hPa West 13.0 km/h 13.0 km/h 81 % 0.0 mm
06:36 14.6 °C 11.3 °C 1023.2 hPa WNW 13.0 km/h 13.0 km/h 81 % 0.0 mm
06:40 14.5 °C 11.3 °C 1023.2 hPa WNW 9.3 km/h 9.3 km/h 81 % 0.0 mm
06:45 14.4 °C 11.2 °C 1023.2 hPa West 11.3 km/h 11.3 km/h 81 % 0.0 mm
06:46 14.4 °C 11.2 °C 1023.2 hPa West 11.3 km/h 11.3 km/h 81 % 0.0 mm
06:49 14.3 °C 11.3 °C 1023.2 hPa WSW 13.0 km/h 13.0 km/h 82 % 0.0 mm
06:52 14.3 °C 11.3 °C 1023.2 hPa SW 16.7 km/h 16.7 km/h 82 % 0.0 mm
06:57 14.5 °C 11.4 °C 1023.2 hPa West 16.7 km/h 16.7 km/h 82 % 0.0 mm
06:59 14.7 °C 11.6 °C 1023.2 hPa WSW 16.7 km/h 16.7 km/h 82 % 0.0 mm
07:01 14.7 °C 11.7 °C 1023.2 hPa West 18.5 km/h 18.5 km/h 82 % 0.0 mm
07:05 14.7 °C 11.7 °C 1023.6 hPa WSW 16.7 km/h 16.7 km/h 82 % 0.0 mm
07:10 14.7 °C 11.6 °C 1023.6 hPa WNW 9.3 km/h 9.3 km/h 82 % 0.0 mm
07:12 14.7 °C 11.6 °C 1023.6 hPa West 14.8 km/h 14.8 km/h 82 % 0.0 mm
07:17 14.7 °C 11.8 °C 1023.6 hPa WNW 13.0 km/h 13.0 km/h 83 % 0.0 mm
07:18 14.7 °C 11.8 °C 1023.6 hPa West 13.0 km/h 13.0 km/h 83 % 0.0 mm
07:23 14.6 °C 11.8 °C 1023.6 hPa West 13.0 km/h 13.0 km/h 83 % 0.0 mm
07:26 14.6 °C 11.9 °C 1023.6 hPa WNW 9.7 km/h 9.7 km/h 84 % 0.0 mm
07:30 14.6 °C 11.9 °C 1023.6 hPa WNW 14.8 km/h 14.8 km/h 84 % 0.0 mm
07:35 14.6 °C 11.9 °C 1023.6 hPa West 18.5 km/h 18.5 km/h 84 % 0.0 mm
07:40 14.5 °C 12.0 °C 1023.6 hPa WSW 16.7 km/h 16.7 km/h 85 % 0.3 mm
07:41 14.6 °C 12.1 °C 1023.6 hPa WSW 16.7 km/h 16.7 km/h 85 % 0.3 mm
07:46 14.5 °C 12.2 °C 1023.6 hPa WSW 18.5 km/h 18.5 km/h 86 % 0.3 mm
07:51 14.5 °C 12.2 °C 1023.6 hPa West 20.9 km/h 20.9 km/h 86 % 0.3 mm
07:52 14.5 °C 12.2 °C 1023.6 hPa WSW 18.5 km/h 18.5 km/h 86 % 0.3 mm
07:54 14.5 °C 12.3 °C 1023.6 hPa West 20.4 km/h 20.4 km/h 87 % 0.3 mm
07:58 14.4 °C 12.3 °C 1023.6 hPa West 18.5 km/h 18.5 km/h 87 % 0.3 mm
08:03 14.3 °C 12.4 °C 1023.6 hPa West 11.1 km/h 11.1 km/h 88 % 0.3 mm
08:08 14.3 °C 12.3 °C 1023.6 hPa West 14.8 km/h 14.8 km/h 88 % 0.3 mm
08:13 14.2 °C 12.2 °C 1023.6 hPa West 7.4 km/h 7.4 km/h 88 % 0.3 mm
08:14 14.2 °C 12.2 °C 1023.6 hPa West 8.0 km/h 8.0 km/h 88 % 0.3 mm
08:19 14.1 °C 12.3 °C 1023.6 hPa West 9.3 km/h 9.3 km/h 89 % 0.3 mm
08:20 14.1 °C 12.3 °C 1023.6 hPa WSW 9.7 km/h 9.7 km/h 89 % 0.3 mm
08:21 14.1 °C 12.3 °C 1023.6 hPa West 11.1 km/h 11.1 km/h 89 % 0.3 mm
08:26 14.1 °C 12.3 °C 1023.6 hPa West 13.0 km/h 13.0 km/h 89 % 0.3 mm
08:30 14.1 °C 12.5 °C 1023.6 hPa WSW 16.1 km/h 16.1 km/h 90 % 0.3 mm
08:35 14.1 °C 12.4 °C 1023.6 hPa WSW 18.5 km/h 18.5 km/h 90 % 0.3 mm
08:37 14.1 °C 12.4 °C 1023.6 hPa SW 17.7 km/h 17.7 km/h 90 % 0.0 mm
08:40 14.1 °C 12.4 °C 1023.2 hPa WSW 18.5 km/h 18.5 km/h 90 % 0.0 mm
08:44 14.1 °C 12.6 °C 1023.2 hPa WSW 18.5 km/h 18.5 km/h 91 % 0.3 mm
08:46 14.0 °C 12.6 °C 1023.2 hPa West 18.5 km/h 18.5 km/h 91 % 0.3 mm
08:51 13.9 °C 12.5 °C 1023.2 hPa WSW 16.1 km/h 16.1 km/h 91 % 0.3 mm
08:52 13.9 °C 12.5 °C 1023.2 hPa West 16.7 km/h 16.7 km/h 91 % 0.3 mm
08:57 14.0 °C 12.6 °C 1023.2 hPa West 18.5 km/h 18.5 km/h 91 % 0.5 mm
09:02 14.0 °C 12.6 °C 1023.2 hPa WSW 18.5 km/h 18.5 km/h 91 % 0.5 mm
09:06 14.1 °C 12.8 °C 1023.2 hPa WSW 18.5 km/h 18.5 km/h 92 % 0.5 mm
09:10 14.1 °C 12.6 °C 1023.2 hPa West 24.1 km/h 24.1 km/h 91 % 0.5 mm
09:11 14.0 °C 12.6 °C 1023.2 hPa WSW 24.1 km/h 24.1 km/h 91 % 0.5 mm
09:16 14.0 °C 12.7 °C 1023.2 hPa WSW 16.7 km/h 16.7 km/h 92 % 0.5 mm
09:17 14.1 °C 12.8 °C 1023.2 hPa West 16.1 km/h 16.1 km/h 92 % 0.5 mm
09:18 14.1 °C 12.8 °C 1023.2 hPa WSW 14.8 km/h 14.8 km/h 92 % 0.5 mm
09:23 14.0 °C 12.7 °C 1023.2 hPa West 18.5 km/h 18.5 km/h 92 % 0.8 mm
09:24 14.0 °C 12.7 °C 1023.2 hPa West 25.9 km/h 25.9 km/h 92 % 0.8 mm
09:29 14.0 °C 12.7 °C 1023.2 hPa WSW 17.7 km/h 17.7 km/h 92 % 0.8 mm
09:33 14.0 °C 12.7 °C 1022.9 hPa West 20.9 km/h 20.9 km/h 92 % 0.8 mm
09:35 13.9 °C 12.7 °C 1023.2 hPa West 18.5 km/h 18.5 km/h 92 % 0.8 mm
09:40 14.0 °C 12.7 °C 1022.9 hPa West 22.2 km/h 22.2 km/h 92 % 0.8 mm
09:45 14.0 °C 12.7 °C 1023.2 hPa West 22.2 km/h 22.2 km/h 92 % 0.5 mm
09:48 14.1 °C 12.8 °C 1022.9 hPa WSW 24.1 km/h 24.1 km/h 92 % 0.5 mm
09:50 14.1 °C 12.8 °C 1023.2 hPa West 16.7 km/h 16.7 km/h 92 % 0.5 mm
09:55 14.1 °C 12.8 °C 1023.2 hPa WSW 19.3 km/h 19.3 km/h 92 % 0.3 mm
09:57 14.2 °C 12.9 °C 1022.9 hPa West 18.5 km/h 18.5 km/h 92 % 0.3 mm
10:02 14.1 °C 12.8 °C 1023.2 hPa NW 13.0 km/h 13.0 km/h 92 % 0.3 mm
10:03 14.1 °C 12.8 °C 1022.9 hPa WNW 9.3 km/h 9.3 km/h 92 % 0.3 mm
10:07 14.1 °C 12.8 °C 1022.9 hPa West 9.7 km/h 9.7 km/h 92 % 0.3 mm
10:12 14.1 °C 12.8 °C 1022.9 hPa West 16.7 km/h 16.7 km/h 92 % 0.3 mm
10:13 14.1 °C 12.8 °C 1022.9 hPa West 14.8 km/h 14.8 km/h 92 % 0.3 mm
10:15 14.1 °C 12.8 °C 1023.2 hPa West 5.6 km/h 5.6 km/h 92 % 0.3 mm
10:18 14.1 °C 12.8 °C 1022.9 hPa WNW 9.3 km/h 9.3 km/h 92 % 0.3 mm
10:22 14.1 °C 12.8 °C 1022.9 hPa West 12.9 km/h 12.9 km/h 92 % 0.0 mm
10:25 14.1 °C 12.8 °C 1022.9 hPa West 11.1 km/h 11.1 km/h 92 % 0.0 mm
10:29 14.2 °C 12.9 °C 1022.9 hPa WSW 17.7 km/h 17.7 km/h 92 % 0.0 mm
10:30 14.2 °C 12.9 °C 1023.2 hPa WSW 20.4 km/h 20.4 km/h 92 % 0.0 mm
10:35 14.3 °C 13.2 °C 1023.2 hPa West 18.5 km/h 18.5 km/h 93 % 0.0 mm
10:36 14.3 °C 13.2 °C 1023.2 hPa West 18.5 km/h 18.5 km/h 93 % 0.0 mm
10:41 14.3 °C 13.2 °C 1023.2 hPa West 11.1 km/h 11.1 km/h 93 % 0.0 mm
10:42 14.3 °C 13.2 °C 1023.2 hPa WSW 11.1 km/h 11.1 km/h 93 % 0.0 mm
10:43 14.3 °C 13.2 °C 1023.2 hPa WNW 13.0 km/h 13.0 km/h 93 % 0.0 mm
10:48 14.3 °C 13.2 °C 1023.2 hPa West 19.3 km/h 19.3 km/h 93 % 0.0 mm
10:51 14.3 °C 13.2 °C 1023.2 hPa WNW 13.0 km/h 13.0 km/h 93 % 0.0 mm
10:56 14.3 °C 13.2 °C 1023.2 hPa WSW 11.3 km/h 11.3 km/h 93 % 0.0 mm
10:58 14.3 °C 13.2 °C 1023.2 hPa West 5.6 km/h 5.6 km/h 93 % 0.0 mm
11:01 14.3 °C 13.2 °C 1023.2 hPa NW 13.0 km/h 13.0 km/h 93 % 0.0 mm
11:04 14.3 °C 13.2 °C 1023.2 hPa WSW 11.1 km/h 11.1 km/h 93 % 0.0 mm
11:07 14.4 °C 13.3 °C 1023.2 hPa WNW 11.1 km/h 11.1 km/h 93 % 0.0 mm
11:12 14.4 °C 13.3 °C 1023.2 hPa West 13.0 km/h 13.0 km/h 93 % 0.0 mm
11:13 14.4 °C 13.3 °C 1023.2 hPa West 13.0 km/h 13.0 km/h 93 % 0.0 mm
11:14 14.4 °C 13.3 °C 1023.2 hPa West 13.0 km/h 13.0 km/h 93 % 0.0 mm
11:18 14.4 °C 13.3 °C 1023.2 hPa West 5.6 km/h 5.6 km/h 93 % 0.0 mm
11:19 14.5 °C 13.4 °C 1023.2 hPa West 7.4 km/h 7.4 km/h 93 % 0.0 mm
11:25 14.6 °C 13.4 °C 1022.9 hPa WNW 16.7 km/h 16.7 km/h 93 % 0.0 mm
11:30 14.7 °C 13.6 °C 1023.2 hPa WNW 9.7 km/h 16.1 km/h 93 % 0.0 mm
11:34 14.8 °C 13.7 °C 1023.2 hPa WNW 18.5 km/h 18.5 km/h 93 % 0.0 mm
11:36 14.8 °C 13.7 °C 1023.2 hPa West 9.7 km/h 9.7 km/h 93 % 0.0 mm
11:41 14.9 °C 13.7 °C 1023.2 hPa West 16.7 km/h 16.7 km/h 92 % 0.0 mm
11:46 15.0 °C 13.7 °C 1023.2 hPa WSW 16.7 km/h 16.7 km/h 92 % 0.0 mm
11:48 15.1 °C 13.8 °C 1023.2 hPa West 14.8 km/h 14.8 km/h 92 % 0.0 mm
11:53 15.2 °C 13.8 °C 1023.2 hPa West 18.5 km/h 18.5 km/h 91 % 0.0 mm
11:54 15.2 °C 13.8 °C 1022.9 hPa WSW 18.5 km/h 18.5 km/h 91 % 0.0 mm
11:59 15.4 °C 13.9 °C 1022.9 hPa WSW 22.2 km/h 22.2 km/h 91 % 0.0 mm
12:02 15.4 °C 14.0 °C 1022.9 hPa WSW 22.2 km/h 22.2 km/h 91 % 0.0 mm
12:05 15.5 °C 13.9 °C 1022.9 hPa West 31.5 km/h 31.5 km/h 90 % 0.0 mm
12:06 15.6 °C 14.1 °C 1022.9 hPa West 27.4 km/h 27.4 km/h 91 % 0.0 mm
12:09 15.6 °C 14.0 °C 1022.9 hPa West 27.8 km/h 27.8 km/h 90 % 0.0 mm
12:11 15.7 °C 14.1 °C 1022.9 hPa West 22.2 km/h 22.2 km/h 90 % 0.0 mm
12:16 15.8 °C 14.2 °C 1022.6 hPa WSW 18.5 km/h 18.5 km/h 90 % 0.0 mm
12:22 16.1 °C 14.1 °C 1022.6 hPa West 22.2 km/h 22.2 km/h 88 % 0.0 mm
12:27 16.3 °C 13.9 °C 1022.6 hPa West 25.9 km/h 25.9 km/h 86 % 0.0 mm
12:30 16.3 °C 13.8 °C 1022.6 hPa WSW 29.6 km/h 29.6 km/h 85 % 0.0 mm
12:32 16.4 °C 13.7 °C 1022.6 hPa West 25.9 km/h 25.9 km/h 84 % 0.0 mm
12:37 16.6 °C 13.5 °C 1022.6 hPa SW 27.8 km/h 27.8 km/h 82 % 0.0 mm
12:42 16.8 °C 13.5 °C 1022.6 hPa WSW 24.1 km/h 24.1 km/h 81 % 0.0 mm
12:45 16.8 °C 13.5 °C 1022.6 hPa WSW 31.5 km/h 31.5 km/h 81 % 0.0 mm
12:47 16.7 °C 13.4 °C 1022.6 hPa West 31.5 km/h 31.5 km/h 81 % 0.0 mm
12:51 16.8 °C 13.3 °C 1022.2 hPa West 29.6 km/h 29.6 km/h 80 % 0.0 mm
12:52 16.8 °C 13.3 °C 1022.2 hPa West 24.1 km/h 24.1 km/h 80 % 0.0 mm
12:53 16.8 °C 13.3 °C 1022.2 hPa West 25.9 km/h 25.9 km/h 80 % 0.0 mm
12:56 16.7 °C 13.3 °C 1022.2 hPa West 25.9 km/h 25.9 km/h 80 % 0.0 mm
13:01 16.7 °C 13.1 °C 1022.2 hPa West 18.5 km/h 18.5 km/h 79 % 0.0 mm
13:03 16.8 °C 13.1 °C 1022.2 hPa West 14.8 km/h 14.8 km/h 79 % 0.0 mm
13:08 17.0 °C 12.6 °C 1021.9 hPa West 12.9 km/h 12.9 km/h 75 % 0.0 mm
13:09 17.1 °C 12.6 °C 1021.9 hPa West 14.8 km/h 14.8 km/h 75 % 0.0 mm
13:10 17.1 °C 12.4 °C 1021.9 hPa WNW 14.8 km/h 14.8 km/h 74 % 0.0 mm
13:15 17.3 °C 12.2 °C 1021.9 hPa WNW 11.3 km/h 11.3 km/h 72 % 0.0 mm
13:20 17.4 °C 11.7 °C 1021.9 hPa WNW 9.3 km/h 9.3 km/h 69 % 0.0 mm
13:21 17.4 °C 11.7 °C 1021.9 hPa WNW 9.7 km/h 9.7 km/h 69 % 0.0 mm
13:26 17.4 °C 11.5 °C 1021.9 hPa WNW 7.4 km/h 7.4 km/h 68 % 0.0 mm
13:28 17.5 °C 11.3 °C 1021.9 hPa WSW 8.0 km/h 8.0 km/h 67 % 0.0 mm
13:32 17.5 °C 11.1 °C 1021.9 hPa West 11.1 km/h 11.1 km/h 66 % 0.0 mm
13:37 17.4 °C 10.8 °C 1021.6 hPa West 13.0 km/h 13.0 km/h 65 % 0.0 mm
13:42 17.4 °C 10.3 °C 1021.6 hPa WSW 18.5 km/h 18.5 km/h 63 % 0.0 mm
13:47 17.4 °C 10.1 °C 1021.6 hPa WSW 20.4 km/h 20.4 km/h 62 % 0.0 mm
13:48 17.4 °C 10.1 °C 1021.6 hPa WSW 20.4 km/h 20.4 km/h 62 % 0.0 mm
13:53 17.4 °C 9.8 °C 1021.6 hPa WSW 20.4 km/h 20.4 km/h 61 % 0.0 mm
13:54 17.4 °C 9.8 °C 1021.6 hPa WSW 18.5 km/h 18.5 km/h 61 % 0.0 mm
13:59 17.4 °C 10.1 °C 1021.2 hPa SW 16.7 km/h 16.7 km/h 62 % 0.0 mm
14:00 17.4 °C 10.1 °C 1021.2 hPa SW 16.7 km/h 16.7 km/h 62 % 0.0 mm
14:05 17.4 °C 10.1 °C 1021.2 hPa WSW 14.8 km/h 14.8 km/h 62 % 0.0 mm
14:07 17.4 °C 10.1 °C 1021.2 hPa SW 13.0 km/h 13.0 km/h 62 % 0.0 mm
14:12 17.3 °C 10.0 °C 1021.2 hPa WSW 18.5 km/h 18.5 km/h 62 % 0.0 mm
14:14 17.3 °C 9.9 °C 1021.2 hPa SW 14.8 km/h 14.8 km/h 62 % 0.0 mm
14:17 17.3 °C 9.4 °C 1021.2 hPa SSW 11.1 km/h 11.1 km/h 60 % 0.0 mm
14:20 17.3 °C 9.5 °C 1021.2 hPa SW 11.3 km/h 11.3 km/h 60 % 0.0 mm
14:23 17.3 °C 9.5 °C 1021.2 hPa WSW 16.7 km/h 16.7 km/h 60 % 0.0 mm
14:25 17.4 °C 9.8 °C 1021.2 hPa SSW 14.8 km/h 14.8 km/h 61 % 0.0 mm
14:29 17.4 °C 9.6 °C 1021.2 hPa WSW 13.0 km/h 13.0 km/h 60 % 0.0 mm
14:32 17.4 °C 9.6 °C 1021.2 hPa WSW 12.9 km/h 12.9 km/h 60 % 0.0 mm
14:34 17.3 °C 9.2 °C 1021.2 hPa West 14.8 km/h 14.8 km/h 59 % 0.0 mm
14:38 17.3 °C 9.2 °C 1020.9 hPa West 1.9 km/h   59 % 0.0 mm
14:40 17.4 °C 9.8 °C 1020.9 hPa Calm     61 % 0.0 mm
14:45 17.4 °C 9.6 °C 1020.9 hPa WNW 8.0 km/h 8.0 km/h 60 % 0.0 mm
14:46 17.4 °C 9.6 °C 1020.9 hPa WNW 8.0 km/h 8.0 km/h 60 % 0.0 mm
14:47 17.3 °C 9.2 °C 1020.9 hPa WNW 9.3 km/h 9.3 km/h 59 % 0.0 mm
14:52 17.3 °C 8.7 °C 1020.9 hPa WNW 3.7 km/h   57 % 0.0 mm
14:54 17.3 °C 9.0 °C 1020.9 hPa Calm     58 % 0.0 mm
14:58 17.3 °C 8.7 °C 1020.9 hPa NE 11.1 km/h 11.1 km/h 57 % 0.0 mm
15:00 17.2 °C 8.6 °C 1020.9 hPa North 8.0 km/h 8.0 km/h 57 % 0.0 mm
15:05 17.1 °C 8.3 °C 1020.9 hPa NNE 11.1 km/h 11.1 km/h 56 % 0.0 mm
15:10 16.9 °C 8.3 °C 1020.9 hPa NNE 8.0 km/h 8.0 km/h 57 % 0.0 mm
15:15 16.7 °C 7.9 °C 1020.9 hPa NW 13.0 km/h 13.0 km/h 56 % 0.0 mm
15:19 16.7 °C 7.8 °C 1020.9 hPa East 8.0 km/h 8.0 km/h 56 % 0.0 mm
15:24 16.7 °C 7.9 °C 1020.9 hPa WNW 11.1 km/h 11.1 km/h 56 % 0.0 mm
15:25 16.7 °C 7.8 °C 1020.9 hPa WNW 11.1 km/h 11.1 km/h 56 % 0.0 mm
15:26 16.7 °C 7.6 °C 1020.9 hPa WNW 9.3 km/h 9.3 km/h 55 % 0.0 mm
15:31 16.7 °C 7.8 °C 1020.9 hPa SW 9.3 km/h 9.3 km/h 56 % 0.0 mm
15:32 16.7 °C 7.8 °C 1020.9 hPa SW 9.3 km/h 9.3 km/h 56 % 0.0 mm
15:36 16.7 °C 7.6 °C 1020.9 hPa WSW 13.0 km/h 13.0 km/h 55 % 0.0 mm
15:39 16.7 °C 7.6 °C 1021.2 hPa West 8.0 km/h 8.0 km/h 55 % 0.0 mm
15:42 16.7 °C 7.3 °C 1020.9 hPa SW 18.5 km/h 18.5 km/h 54 % 0.0 mm
15:46 16.6 °C 7.5 °C 1020.9 hPa WNW 13.0 km/h 13.0 km/h 55 % 0.0 mm
15:49 16.7 °C 7.6 °C 1020.9 hPa WSW 14.5 km/h 14.5 km/h 55 % 0.0 mm
15:52 16.7 °C 7.3 °C 1020.9 hPa West 16.1 km/h 16.1 km/h 54 % 0.0 mm
15:57 16.7 °C 7.3 °C 1021.2 hPa West 11.1 km/h 11.1 km/h 54 % 0.0 mm
16:00 16.7 °C 7.3 °C 1020.9 hPa West 14.8 km/h 14.8 km/h 54 % 0.0 mm
16:06 16.6 °C 6.7 °C 1020.9 hPa West 13.0 km/h 13.0 km/h 52 % 0.0 mm
16:07 16.6 °C 6.7 °C 1020.9 hPa West 16.7 km/h 16.7 km/h 52 % 0.0 mm
16:12 16.6 °C 7.0 °C 1020.9 hPa West 18.5 km/h 18.5 km/h 53 % 0.0 mm
16:17 16.7 °C 7.1 °C 1020.5 hPa West 18.5 km/h 18.5 km/h 53 % 0.0 mm
16:18 16.7 °C 6.8 °C 1020.9 hPa West 18.5 km/h 18.5 km/h 52 % 0.0 mm
16:23 16.8 °C 6.8 °C 1020.5 hPa WNW 16.1 km/h 16.1 km/h 52 % 0.0 mm
16:28 16.7 °C 6.8 °C 1020.5 hPa WNW 22.2 km/h 22.2 km/h 52 % 0.0 mm
16:29 16.7 °C 6.5 °C 1020.5 hPa NW 22.2 km/h 22.2 km/h 51 % 0.0 mm
16:34 16.6 °C 6.4 °C 1020.2 hPa WNW 24.1 km/h 24.1 km/h 51 % 0.0 mm
16:37 16.6 °C 6.4 °C 1020.2 hPa NW 18.5 km/h 18.5 km/h 51 % 0.0 mm
16:39 16.6 °C 6.7 °C 1020.2 hPa NW 18.5 km/h 18.5 km/h 52 % 0.0 mm
16:44 16.6 °C 6.7 °C 1020.2 hPa WNW 20.9 km/h 20.9 km/h 52 % 0.0 mm
16:45 16.6 °C 6.7 °C 1020.2 hPa NW 20.9 km/h 20.9 km/h 52 % 0.0 mm
16:49 16.6 °C 6.7 °C 1020.2 hPa NW 13.0 km/h 13.0 km/h 52 % 0.0 mm
16:51 16.6 °C 6.9 °C 1020.2 hPa NW 14.8 km/h 14.8 km/h 53 % 0.0 mm
16:57 16.6 °C 6.4 °C 1020.2 hPa NW 14.8 km/h 14.8 km/h 51 % 0.0 mm
17:00 16.6 °C 6.4 °C 1020.2 hPa NW 22.2 km/h 22.2 km/h 51 % 0.0 mm
17:02 16.6 °C 6.4 °C 1020.2 hPa WNW 18.5 km/h 18.5 km/h 51 % 0.0 mm
17:07 16.6 °C 6.7 °C 1020.5 hPa NW 14.8 km/h 14.8 km/h 52 % 0.0 mm
17:08 16.6 °C 6.7 °C 1020.5 hPa NW 14.8 km/h 14.8 km/h 52 % 0.0 mm
17:10 16.6 °C 6.7 °C 1020.5 hPa NW 16.7 km/h 16.7 km/h 52 % 0.0 mm
17:13 16.6 °C 6.4 °C 1020.5 hPa NW 27.8 km/h 27.8 km/h 51 % 0.0 mm
17:18 16.6 °C 6.7 °C 1020.5 hPa WNW 18.5 km/h 18.5 km/h 52 % 0.0 mm
17:19 16.6 °C 6.7 °C 1020.5 hPa WNW 18.5 km/h 18.5 km/h 52 % 0.0 mm
17:24 16.6 °C 6.7 °C 1020.5 hPa WNW 18.5 km/h 18.5 km/h 52 % 0.0 mm
17:25 16.6 °C 6.7 °C 1020.5 hPa WNW 18.5 km/h 18.5 km/h 52 % 0.0 mm
17:30 16.6 °C 6.4 °C 1020.2 hPa WNW 18.5 km/h 18.5 km/h 51 % 0.0 mm
17:32 16.6 °C 6.4 °C 1020.2 hPa NW 18.5 km/h 18.5 km/h 51 % 0.0 mm
17:37 16.4 °C 6.3 °C 1020.2 hPa NW 18.5 km/h 18.5 km/h 51 % 0.0 mm
17:38 16.4 °C 6.3 °C 1020.2 hPa NW 16.1 km/h 16.1 km/h 51 % 0.0 mm
17:42 16.3 °C 6.4 °C 1020.2 hPa NW 22.5 km/h 22.5 km/h 52 % 0.3 mm
17:47 16.2 °C 6.3 °C 1020.2 hPa NNW 24.1 km/h 24.1 km/h 52 % 0.3 mm
17:48 16.2 °C 6.3 °C 1020.2 hPa NW 24.1 km/h 24.1 km/h 52 % 0.3 mm
17:51 16.2 °C 6.3 °C 1020.2 hPa NNW 16.1 km/h 16.1 km/h 52 % 0.3 mm
17:54 16.2 °C 6.3 °C 1020.2 hPa NW 18.5 km/h 18.5 km/h 52 % 0.3 mm
17:57 16.1 °C 6.5 °C 1020.2 hPa WNW 13.0 km/h 13.0 km/h 53 % 0.3 mm
18:01 16.0 °C 6.4 °C 1020.2 hPa WNW 14.8 km/h 14.8 km/h 53 % 0.3 mm
18:06 15.9 °C 6.4 °C 1020.2 hPa WNW 22.2 km/h 22.2 km/h 53 % 0.3 mm
18:07 15.9 °C 6.1 °C 1020.2 hPa NW 18.5 km/h 18.5 km/h 52 % 0.3 mm
18:10 15.9 °C 6.3 °C 1020.5 hPa NW 22.2 km/h 22.2 km/h 53 % 0.3 mm
18:13 15.9 °C 6.3 °C 1020.5 hPa NW 18.5 km/h 18.5 km/h 53 % 0.3 mm
18:18 15.8 °C 6.0 °C 1020.5 hPa NW 18.5 km/h 18.5 km/h 52 % 0.3 mm
18:21 15.8 °C 6.3 °C 1020.5 hPa NW 16.7 km/h 16.7 km/h 53 % 0.3 mm
18:24 15.8 °C 6.2 °C 1020.5 hPa NW 16.7 km/h 16.7 km/h 53 % 0.3 mm
18:27 15.8 °C 6.2 °C 1020.5 hPa NW 19.3 km/h 19.3 km/h 53 % 0.3 mm
18:30 15.8 °C 6.2 °C 1020.5 hPa NW 18.5 km/h 18.5 km/h 53 % 0.3 mm
18:35 15.8 °C 5.9 °C 1020.5 hPa WNW 18.5 km/h 18.5 km/h 52 % 0.3 mm
18:37 15.8 °C 5.9 °C 1020.5 hPa NNW 16.7 km/h 16.7 km/h 52 % 0.3 mm
18:40 15.8 °C 5.9 °C 1020.5 hPa WNW 16.7 km/h 16.7 km/h 52 % 0.0 mm
18:42 15.8 °C 5.9 °C 1020.5 hPa NW 18.5 km/h 18.5 km/h 52 % 0.0 mm
18:46 15.7 °C 5.9 °C 1020.5 hPa NW 18.5 km/h 18.5 km/h 52 % 0.0 mm
18:48 15.7 °C 5.9 °C 1020.5 hPa WNW 18.5 km/h 18.5 km/h 52 % 0.0 mm
18:53 15.7 °C 5.9 °C 1020.5 hPa West 18.5 km/h 18.5 km/h 52 % 0.0 mm
18:58 15.7 °C 6.2 °C 1020.5 hPa NW 18.5 km/h 18.5 km/h 53 % 0.0 mm
19:00 15.7 °C 6.1 °C 1020.5 hPa WNW 13.0 km/h 13.0 km/h 53 % 0.0 mm
19:05 15.6 °C 6.3 °C 1020.5 hPa NW 13.0 km/h 13.0 km/h 54 % 0.0 mm
19:06 15.6 °C 6.3 °C 1020.5 hPa WNW 13.0 km/h 13.0 km/h 54 % 0.0 mm
19:09 15.6 °C 6.3 °C 1020.5 hPa NW 18.5 km/h 18.5 km/h 54 % 0.0 mm
19:11 15.6 °C 6.3 °C 1020.5 hPa WNW 18.5 km/h 18.5 km/h 54 % 0.0 mm
19:16 15.6 °C 6.3 °C 1020.5 hPa WNW 18.5 km/h 18.5 km/h 54 % 0.0 mm
19:18 15.5 °C 6.2 °C 1020.5 hPa NW 16.7 km/h 16.7 km/h 54 % 0.0 mm
19:21 15.5 °C 6.2 °C 1020.2 hPa NW 22.2 km/h 22.2 km/h 54 % 0.0 mm
19:23 15.5 °C 6.2 °C 1020.5 hPa NW 20.4 km/h 20.4 km/h 54 % 0.0 mm
19:27 15.4 °C 6.4 °C 1020.5 hPa NNW 18.5 km/h 18.5 km/h 55 % 0.0 mm
19:29 15.4 °C 6.4 °C 1020.5 hPa NW 18.5 km/h 18.5 km/h 55 % 0.0 mm
19:33 15.4 °C 6.4 °C 1020.5 hPa NW 20.9 km/h 20.9 km/h 55 % 0.0 mm
19:38 15.3 °C 6.3 °C 1020.5 hPa WNW 20.4 km/h 20.4 km/h 55 % 0.0 mm
19:39 15.3 °C 6.3 °C 1020.5 hPa WNW 18.5 km/h 18.5 km/h 55 % 0.0 mm
19:41 15.3 °C 6.3 °C 1020.5 hPa NW 9.3 km/h 9.3 km/h 55 % 0.0 mm
19:45 15.3 °C 6.3 °C 1020.5 hPa NW 14.8 km/h 14.8 km/h 55 % 0.0 mm
19:50 15.3 °C 6.3 °C 1020.5 hPa NW 18.5 km/h 18.5 km/h 55 % 0.0 mm
19:51 15.3 °C 6.3 °C 1020.5 hPa NW 18.5 km/h 18.5 km/h 55 % 0.0 mm
19:54 15.2 °C 6.2 °C 1020.5 hPa NW 14.8 km/h 14.8 km/h 55 % 0.0 mm
19:57 15.2 °C 6.2 °C 1020.5 hPa NW 13.0 km/h 13.0 km/h 55 % 0.0 mm
20:01 15.2 °C 6.2 °C 1020.5 hPa WNW 13.0 km/h 13.0 km/h 55 % 0.0 mm
20:03 15.2 °C 6.2 °C 1020.5 hPa NW 14.8 km/h 14.8 km/h 55 % 0.0 mm
20:08 15.2 °C 6.2 °C 1020.5 hPa NW 14.8 km/h 14.8 km/h 55 % 0.0 mm
20:10 15.1 °C 6.1 °C 1020.5 hPa West 14.8 km/h 14.8 km/h 55 % 0.0 mm
20:15 15.1 °C 6.1 °C 1020.5 hPa NW 12.9 km/h 12.9 km/h 55 % 0.0 mm
20:19 15.1 °C 6.1 °C 1020.5 hPa WNW 18.5 km/h 18.5 km/h 55 % 0.0 mm
20:24 15.1 °C 6.3 °C 1020.5 hPa WNW 8.0 km/h 8.0 km/h 56 % 0.0 mm
20:27 15.1 °C 6.1 °C 1020.5 hPa NW 14.8 km/h 14.8 km/h 55 % 0.0 mm
20:32 14.9 °C 6.0 °C 1020.9 hPa WNW 16.1 km/h 16.1 km/h 55 % 0.0 mm
20:34 14.9 °C 6.0 °C 1020.9 hPa WNW 16.7 km/h 16.7 km/h 55 % 0.0 mm
20:39 14.9 °C 6.2 °C 1021.2 hPa WNW 18.5 km/h 18.5 km/h 56 % 0.0 mm
20:40 14.9 °C 6.2 °C 1021.2 hPa West 16.7 km/h 16.7 km/h 56 % 0.0 mm
20:43 14.9 °C 6.2 °C 1021.2 hPa NW 20.4 km/h 20.4 km/h 56 % 0.0 mm
20:45 14.9 °C 6.2 °C 1021.2 hPa WNW 14.8 km/h 14.8 km/h 56 % 0.0 mm
20:50 14.9 °C 6.2 °C 1020.9 hPa West 29.6 km/h 29.6 km/h 56 % 0.0 mm
20:51 14.9 °C 6.2 °C 1020.9 hPa West 29.6 km/h 29.6 km/h 56 % 0.0 mm
20:53 14.9 °C 6.0 °C 1021.2 hPa West 31.5 km/h 31.5 km/h 55 % 0.0 mm
20:56 14.9 °C 6.2 °C 1020.9 hPa West 18.5 km/h 18.5 km/h 56 % 0.0 mm
20:59 14.9 °C 6.2 °C 1021.2 hPa West 19.3 km/h 19.3 km/h 56 % 0.0 mm
21:02 14.9 °C 6.2 °C 1021.2 hPa WNW 24.1 km/h 24.1 km/h 56 % 0.0 mm
21:05 14.9 °C 6.2 °C 1021.2 hPa West 11.3 km/h 24.1 km/h 56 % 0.0 mm
21:10 14.8 °C 6.4 °C 1021.2 hPa NW 13.0 km/h 13.0 km/h 57 % 0.0 mm
21:12 14.8 °C 6.3 °C 1021.2 hPa WNW 17.7 km/h 17.7 km/h 57 % 0.0 mm
21:16 14.7 °C 6.6 °C 1021.2 hPa WNW 16.7 km/h 16.7 km/h 58 % 0.0 mm
21:18 14.7 °C 6.6 °C 1021.2 hPa West 18.5 km/h 18.5 km/h 58 % 0.0 mm
21:23 14.7 °C 6.7 °C 1021.2 hPa West 13.0 km/h 13.0 km/h 59 % 0.0 mm
21:24 14.7 °C 6.7 °C 1021.2 hPa West 13.0 km/h 13.0 km/h 59 % 0.0 mm
21:29 14.7 °C 6.7 °C 1021.2 hPa WNW 16.7 km/h 16.7 km/h 59 % 0.0 mm
21:30 14.7 °C 7.0 °C 1021.6 hPa WNW 14.8 km/h 14.8 km/h 60 % 0.0 mm
21:32 14.6 °C 6.9 °C 1021.2 hPa West 11.3 km/h 11.3 km/h 60 % 0.0 mm
21:37 14.6 °C 7.2 °C 1020.9 hPa West 14.8 km/h 14.8 km/h 61 % 0.0 mm
21:38 14.6 °C 7.2 °C 1020.9 hPa West 16.7 km/h 16.7 km/h 61 % 0.0 mm
21:43 14.6 °C 7.1 °C 1020.9 hPa NW 18.5 km/h 18.5 km/h 61 % 0.0 mm
21:44 14.6 °C 7.2 °C 1020.9 hPa WNW 7.4 km/h 7.4 km/h 61 % 0.0 mm
21:49 14.6 °C 7.2 °C 1020.9 hPa West 9.3 km/h 9.3 km/h 61 % 0.0 mm
21:50 14.6 °C 7.2 °C 1020.9 hPa West 9.3 km/h 9.3 km/h 61 % 0.0 mm
21:52 14.6 °C 7.4 °C 1020.9 hPa West 7.4 km/h 7.4 km/h 62 % 0.0 mm
21:57 14.6 °C 7.4 °C 1021.2 hPa West 16.7 km/h 16.7 km/h 62 % 0.0 mm
21:58 14.6 °C 7.4 °C 1021.2 hPa WNW 18.5 km/h 18.5 km/h 62 % 0.0 mm
22:03 14.8 °C 7.6 °C 1020.9 hPa NW 18.5 km/h 18.5 km/h 62 % 0.0 mm
22:04 14.8 °C 7.6 °C 1020.9 hPa NW 32.2 km/h 32.2 km/h 62 % 0.0 mm
22:05 14.8 °C 7.6 °C 1020.9 hPa NNW 22.5 km/h 22.5 km/h 62 % 0.0 mm
22:10 14.9 °C 7.7 °C 1020.5 hPa WNW 22.2 km/h 22.2 km/h 62 % 0.0 mm
22:15 14.9 °C 7.7 °C 1020.5 hPa NW 18.5 km/h 18.5 km/h 62 % 0.0 mm
22:16 14.9 °C 7.7 °C 1020.5 hPa West 24.1 km/h 24.1 km/h 62 % 0.0 mm
22:20 14.9 °C 7.7 °C 1020.5 hPa WNW 16.1 km/h 16.1 km/h 62 % 0.0 mm
22:21 15.0 °C 7.8 °C 1020.5 hPa West 18.5 km/h 18.5 km/h 62 % 0.0 mm
22:26 15.0 °C 7.8 °C 1020.2 hPa NW 27.8 km/h 27.8 km/h 62 % 0.0 mm
22:31 15.1 °C 7.8 °C 1020.5 hPa WNW 25.9 km/h 25.9 km/h 62 % 0.0 mm
22:32 15.1 °C 7.8 °C 1020.5 hPa WNW 27.4 km/h 27.4 km/h 62 % 0.0 mm
22:34 15.1 °C 8.1 °C 1020.5 hPa WNW 29.6 km/h 29.6 km/h 63 % 0.0 mm
22:37 15.1 °C 8.1 °C 1020.5 hPa NW 31.5 km/h 31.5 km/h 63 % 0.0 mm
22:42 15.1 °C 8.1 °C 1020.5 hPa West 37.0 km/h 37.0 km/h 63 % 0.0 mm
22:47 15.2 °C 8.2 °C 1020.5 hPa WSW 31.5 km/h 31.5 km/h 63 % 0.0 mm
22:50 15.2 °C 8.0 °C 1020.5 hPa West 24.1 km/h 24.1 km/h 62 % 0.0 mm
22:52 15.3 °C 8.1 °C 1020.5 hPa WNW 33.3 km/h 33.3 km/h 62 % 0.0 mm
22:57 15.3 °C 8.1 °C 1020.9 hPa WNW 37.0 km/h 37.0 km/h 62 % 0.0 mm
22:58 15.3 °C 8.1 °C 1020.5 hPa West 31.5 km/h 31.5 km/h 62 % 0.0 mm
23:03 15.3 °C 8.3 °C 1020.5 hPa West 40.7 km/h 40.7 km/h 63 % 0.0 mm
23:09 15.4 °C 8.4 °C 1020.5 hPa West 24.1 km/h 24.1 km/h 63 % 0.0 mm
23:10 15.3 °C 8.6 °C 1020.5 hPa West 27.8 km/h 27.8 km/h 64 % 0.0 mm
23:14 15.3 °C 8.6 °C 1020.5 hPa West 35.2 km/h 35.2 km/h 64 % 0.0 mm
23:19 15.3 °C 8.6 °C 1020.5 hPa West 29.6 km/h 29.6 km/h 64 % 0.0 mm
23:20 15.3 °C 8.6 °C 1020.5 hPa West 24.1 km/h 24.1 km/h 64 % 0.0 mm
23:21 15.3 °C 8.6 °C 1020.5 hPa West 24.1 km/h 24.1 km/h 64 % 0.0 mm
23:26 15.3 °C 8.9 °C 1020.5 hPa West 16.7 km/h 16.7 km/h 66 % 0.0 mm
23:31 15.2 °C 8.7 °C 1020.5 hPa WNW 16.7 km/h 16.7 km/h 65 % 0.0 mm
23:33 15.2 °C 8.7 °C 1020.5 hPa West 13.0 km/h 13.0 km/h 65 % 0.0 mm
23:37 15.3 °C 8.5 °C 1020.5 hPa WNW 18.5 km/h 18.5 km/h 64 % 0.0 mm
23:42 15.3 °C 8.5 °C 1020.5 hPa West 18.5 km/h 18.5 km/h 64 % 0.0 mm
23:43 15.3 °C 8.5 °C 1020.5 hPa West 18.5 km/h 18.5 km/h 64 % 0.0 mm
23:46 15.3 °C 8.6 °C 1020.5 hPa NW 11.1 km/h 11.1 km/h 64 % 0.0 mm
23:48 15.3 °C 8.6 °C 1020.5 hPa NW 8.0 km/h 8.0 km/h 64 % 0.0 mm
23:53 15.3 °C 8.6 °C 1020.5 hPa West 14.8 km/h 14.8 km/h 64 % 0.0 mm
23:56 15.3 °C 9.2 °C 1020.2 hPa West 11.1 km/h 11.1 km/h 67 % 0.0 mm
23:58 15.3 °C 9.7 °C 1020.2 hPa WSW 22.5 km/h 22.5 km/h 69 % 0.0 mm
Puerto Banus, Marbella
Elogios de Weather Underground - 2.5 mb

Guión original por  Jim McMurry - jmcmurry@mwt.net Adaptado para la plantilla por  Wim van der Kuil - Leuven-Template.eu

Usted encontrará nuestra información del tiempo también en:

Weather Underground

Iberian Peninsula Weather Network